Time,TemperatureF,DewpointF,PressureIn,WindDirection,WindDirectionDegrees,WindSpeedMPH,WindSpeedGustMPH,Humidity,HourlyPrecipIn,Conditions,Clouds,dailyrainin,SoftwareType,DateUTC
2013-01-05 00:00:00,23.4,18.8,30.30,WSW,240,3.0,8.0,82,0.00,,OVC OVC///CB,0.00,WUHU216DAVISVP2,2013-01-05 05:00:00,
2013-01-05 00:01:00,23.4,18.8,30.30,WSW,248,2.0,8.0,82,0.00,,OVC OVC///CB,0.00,WUHU216DAVISVP2,2013-01-05 05:01:00,
2013-01-05 00:06:00,23.3,18.7,30.30,WSW,248,2.0,8.0,82,0.00,,OVC OVC///CB,0.00,WUHU216DAVISVP2,2013-01-05 05:06:00,
2013-01-05 00:11:00,23.3,18.7,30.30,West,270,0.0,6.0,82,0.00,,OVC OVC///CB,0.00,WUHU216DAVISVP2,2013-01-05 05:11:00,
2013-01-05 00:16:00,23.2,18.6,30.30,WSW,238,1.0,8.0,82,0.00,,OVC OVC///CB,0.00,WUHU216DAVISVP2,2013-01-05 05:16:00,
2013-01-05 00:21:00,23.2,18.6,30.30,WSW,239,3.0,8.0,82,0.00,,OVC OVC///CB,0.00,WUHU216DAVISVP2,2013-01-05 05:21:00,
2013-01-05 00:26:00,23.2,18.6,30.31,WSW,244,2.0,7.0,82,0.00,,OVC OVC///CB,0.00,WUHU216DAVISVP2,2013-01-05 05:26:00,
2013-01-05 00:31:00,23.2,18.6,30.31,WSW,240,2.0,8.0,82,0.00,,OVC OVC///CB,0.00,WUHU216DAVISVP2,2013-01-05 05:31:00,
2013-01-05 00:36:00,23.1,18.8,30.31,West,263,3.0,8.0,83,0.00,,OVC OVC///CB,0.00,WUHU216DAVISVP2,2013-01-05 05:36:00,
2013-01-05 00:41:00,23.1,18.8,30.30,WSW,250,2.0,7.0,83,0.00,,OVC OVC///CB,0.00,WUHU216DAVISVP2,2013-01-05 05:41:00,
2013-01-05 00:46:00,23.1,18.8,30.30,West,260,1.0,7.0,83,0.00,,OVC OVC///CB,0.00,WUHU216DAVISVP2,2013-01-05 05:46:00,
2013-01-05 00:51:00,23.0,18.7,30.30,WSW,238,2.0,7.0,83,0.00,,OVC OVC///CB,0.00,WUHU216DAVISVP2,2013-01-05 05:51:00,
2013-01-05 00:56:00,22.9,18.6,30.30,SW,225,2.0,7.0,83,0.00,,OVC OVC///CB,0.00,WUHU216DAVISVP2,2013-01-05 05:56:00,
2013-01-05 01:01:00,23.0,18.7,30.30,WSW,242,4.0,8.0,83,0.00,,OVC OVC///CB,0.00,WUHU216DAVISVP2,2013-01-05 06:01:00,
2013-01-05 01:06:00,22.9,18.6,30.30,SW,224,3.0,8.0,83,0.00,,OVC OVC///CB,0.00,WUHU216DAVISVP2,2013-01-05 06:06:00,
2013-01-05 01:11:00,22.9,18.6,30.31,SW,224,2.0,7.0,83,0.00,,OVC OVC///CB,0.00,WUHU216DAVISVP2,2013-01-05 06:11:00,
2013-01-05 01:16:00,22.8,18.5,30.31,SW,225,0.0,7.0,83,0.00,,OVC OVC///CB,0.00,WUHU216DAVISVP2,2013-01-05 06:16:00,
2013-01-05 01:21:00,22.6,18.3,30.31,SW,229,1.0,7.0,83,0.00,,OVC OVC///CB,0.00,WUHU216DAVISVP2,2013-01-05 06:21:00,
2013-01-05 01:26:00,22.4,18.4,30.31,WSW,240,1.0,5.0,84,0.00,,OVC OVC///CB,0.00,WUHU216DAVISVP2,2013-01-05 06:26:00,
2013-01-05 01:31:00,22.3,18.3,30.31,WSW,254,1.0,6.0,84,0.00,,OVC OVC///CB,0.00,WUHU216DAVISVP2,2013-01-05 06:31:00,
2013-01-05 01:36:00,22.3,18.3,30.31,WSW,249,1.0,7.0,84,0.00,,OVC OVC///CB,0.00,WUHU216DAVISVP2,2013-01-05 06:36:00,
2013-01-05 01:41:00,22.2,18.2,30.31,WSW,256,3.0,7.0,84,0.00,,OVC OVC///CB,0.00,WUHU216DAVISVP2,2013-01-05 06:41:00,
2013-01-05 01:46:00,22.1,18.4,30.31,West,262,1.0,6.0,85,0.00,,OVC OVC///CB,0.00,WUHU216DAVISVP2,2013-01-05 06:46:00,
2013-01-05 01:51:00,22.0,18.0,30.32,WSW,247,2.0,5.0,84,0.00,,OVC OVC///CB,0.00,WUHU216DAVISVP2,2013-01-05 06:51:00,
2013-01-05 01:56:00,22.1,18.4,30.32,SW,236,2.0,6.0,85,0.00,,OVC OVC///CB,0.00,WUHU216DAVISVP2,2013-01-05 06:56:00,
2013-01-05 02:01:00,22.1,18.4,30.32,SW,231,0.0,6.0,85,0.00,,OVC OVC///CB,0.00,WUHU216DAVISVP2,2013-01-05 07:01:00,
2013-01-05 02:06:00,22.0,18.3,30.32,SSW,208,2.0,5.0,85,0.00,,OVC OVC///CB,0.00,WUHU216DAVISVP2,2013-01-05 07:06:00,
2013-01-05 02:11:00,21.8,18.1,30.32,SW,215,1.0,5.0,85,0.00,,OVC OVC///CB,0.00,WUHU216DAVISVP2,2013-01-05 07:11:00,
2013-01-05 02:16:00,21.7,18.0,30.32,SW,235,0.0,5.0,85,0.00,,OVC OVC///CB,0.00,WUHU216DAVISVP2,2013-01-05 07:16:00,
2013-01-05 02:21:00,21.5,18.0,30.33,SW,232,3.0,4.0,86,0.00,,OVC OVC///CB,0.00,WUHU216DAVISVP2,2013-01-05 07:21:00,
2013-01-05 02:26:00,21.4,17.9,30.33,SW,226,3.0,4.0,86,0.00,,OVC OVC///CB,0.00,WUHU216DAVISVP2,2013-01-05 07:26:00,
2013-01-05 02:31:00,21.3,17.8,30.33,SW,229,3.0,4.0,86,0.00,,OVC OVC///CB,0.00,WUHU216DAVISVP2,2013-01-05 07:31:00,
2013-01-05 02:36:00,21.3,17.8,30.33,WSW,248,2.0,4.0,86,0.00,,OVC OVC///CB,0.00,WUHU216DAVISVP2,2013-01-05 07:36:00,
2013-01-05 02:41:00,21.3,17.8,30.34,SW,226,3.0,6.0,86,0.00,,OVC OVC///CB,0.00,WUHU216DAVISVP2,2013-01-05 07:41:00,
2013-01-05 02:46:00,21.4,17.9,30.34,SSW,211,4.0,7.0,86,0.00,,OVC OVC///CB,0.00,WUHU216DAVISVP2,2013-01-05 07:46:00,
2013-01-05 02:51:00,21.4,17.9,30.34,WSW,249,2.0,7.0,86,0.00,,OVC OVC///CB,0.00,WUHU216DAVISVP2,2013-01-05 07:51:00,
2013-01-05 02:56:00,21.3,17.8,30.34,WSW,253,2.0,7.0,86,0.00,,OVC OVC///CB,0.00,WUHU216DAVISVP2,2013-01-05 07:56:00,
2013-01-05 03:01:00,21.5,18.0,30.35,SW,214,4.0,8.0,86,0.00,,OVC OVC///CB,0.00,WUHU216DAVISVP2,2013-01-05 08:01:00,
2013-01-05 03:06:00,21.6,18.1,30.35,WSW,253,2.0,8.0,86,0.00,,OVC OVC///CB,0.00,WUHU216DAVISVP2,2013-01-05 08:06:00,
2013-01-05 03:11:00,21.6,18.1,30.35,WSW,239,4.0,8.0,86,0.00,,OVC OVC///CB,0.00,WUHU216DAVISVP2,2013-01-05 08:11:00,
2013-01-05 03:16:00,21.8,18.3,30.35,SW,224,3.0,10.0,86,0.00,,OVC OVC///CB,0.00,WUHU216DAVISVP2,2013-01-05 08:16:00,
2013-01-05 03:21:00,21.9,18.4,30.35,SW,224,6.0,10.0,86,0.00,,OVC OVC///CB,0.00,WUHU216DAVISVP2,2013-01-05 08:21:00,
2013-01-05 03:26:00,22.0,18.3,30.35,SSW,201,2.0,10.0,85,0.00,,OVC OVC///CB,0.00,WUHU216DAVISVP2,2013-01-05 08:26:00,
2013-01-05 03:31:00,22.1,18.4,30.35,SW,235,2.0,10.0,85,0.00,,OVC OVC///CB,0.00,WUHU216DAVISVP2,2013-01-05 08:31:00,
2013-01-05 03:36:00,22.2,18.5,30.35,WSW,245,3.0,8.0,85,0.00,,OVC OVC///CB,0.00,WUHU216DAVISVP2,2013-01-05 08:36:00,
2013-01-05 03:41:00,22.2,18.5,30.35,SW,232,2.0,8.0,85,0.00,,OVC OVC///CB,0.00,WUHU216DAVISVP2,2013-01-05 08:41:00,
2013-01-05 03:46:00,22.3,18.6,30.35,WSW,248,3.0,8.0,85,0.00,,OVC OVC///CB,0.00,WUHU216DAVISVP2,2013-01-05 08:46:00,
2013-01-05 03:51:00,22.3,18.6,30.35,SW,218,4.0,8.0,85,0.00,,OVC OVC///CB,0.00,WUHU216DAVISVP2,2013-01-05 08:51:00,
2013-01-05 03:56:00,22.4,18.7,30.35,WSW,253,3.0,8.0,85,0.00,,OVC OVC///CB,0.00,WUHU216DAVISVP2,2013-01-05 08:56:00,
2013-01-05 04:01:00,22.4,18.7,30.35,SW,224,0.0,7.0,85,0.00,,OVC OVC///CB,0.00,WUHU216DAVISVP2,2013-01-05 09:01:00,
2013-01-05 04:06:00,22.4,18.9,30.35,West,276,2.0,7.0,86,0.00,,OVC OVC///CB,0.00,WUHU216DAVISVP2,2013-01-05 09:06:00,
2013-01-05 04:11:00,22.3,18.6,30.35,WSW,248,6.0,7.0,85,0.00,,OVC OVC///CB,0.00,WUHU216DAVISVP2,2013-01-05 09:11:00,
2013-01-05 04:16:00,22.3,18.8,30.35,West,259,5.0,8.0,86,0.00,,OVC OVC///CB,0.00,WUHU216DAVISVP2,2013-01-05 09:16:00,
2013-01-05 04:21:00,22.3,18.8,30.35,WSW,239,4.0,8.0,86,0.00,,OVC OVC///CB,0.00,WUHU216DAVISVP2,2013-01-05 09:21:00,
2013-01-05 04:26:00,22.3,18.8,30.35,West,276,2.0,7.0,86,0.00,,OVC OVC///CB,0.00,WUHU216DAVISVP2,2013-01-05 09:26:00,
2013-01-05 04:31:00,22.3,18.8,30.34,WSW,249,2.0,7.0,86,0.00,,OVC OVC///CB,0.00,WUHU216DAVISVP2,2013-01-05 09:31:00,
2013-01-05 04:36:00,22.2,18.7,30.34,SW,229,1.0,5.0,86,0.00,,OVC OVC///CB,0.00,WUHU216DAVISVP2,2013-01-05 09:36:00,
2013-01-05 04:41:00,22.1,18.6,30.35,SSW,212,1.0,5.0,86,0.00,,OVC OVC///CB,0.00,WUHU216DAVISVP2,2013-01-05 09:41:00,
2013-01-05 04:46:00,22.0,18.5,30.35,SW,226,2.0,5.0,86,0.00,,OVC OVC///CB,0.00,WUHU216DAVISVP2,2013-01-05 09:46:00,
2013-01-05 04:51:00,21.9,18.4,30.35,WSW,242,2.0,4.0,86,0.00,,OVC OVC///CB,0.00,WUHU216DAVISVP2,2013-01-05 09:51:00,
2013-01-05 04:56:00,21.9,18.4,30.36,West,267,2.0,5.0,86,0.00,,OVC OVC///CB,0.00,WUHU216DAVISVP2,2013-01-05 09:56:00,
2013-01-05 05:01:00,21.9,18.4,30.36,West,264,3.0,8.0,86,0.00,,OVC OVC///CB,0.00,WUHU216DAVISVP2,2013-01-05 10:01:00,
2013-01-05 05:06:00,21.9,18.7,30.36,SSW,207,4.0,8.0,87,0.00,,OVC OVC///CB,0.00,WUHU216DAVISVP2,2013-01-05 10:06:00,
2013-01-05 05:11:00,22.0,18.5,30.35,West,267,3.0,8.0,86,0.00,,OVC OVC///CB,0.00,WUHU216DAVISVP2,2013-01-05 10:11:00,
2013-01-05 05:16:00,22.0,18.8,30.36,WSW,242,2.0,8.0,87,0.00,,OVC OVC///CB,0.00,WUHU216DAVISVP2,2013-01-05 10:16:00,
2013-01-05 05:21:00,22.1,18.9,30.36,WSW,239,1.0,9.0,87,0.00,,OVC OVC///CB,0.00,WUHU216DAVISVP2,2013-01-05 10:21:00,
2013-01-05 05:26:00,22.1,18.9,30.35,SW,232,2.0,9.0,87,0.00,,OVC OVC///CB,0.00,WUHU216DAVISVP2,2013-01-05 10:26:00,
2013-01-05 05:31:00,22.1,18.6,30.36,WSW,250,2.0,9.0,86,0.00,,OVC OVC///CB,0.00,WUHU216DAVISVP2,2013-01-05 10:31:00,
2013-01-05 05:36:00,22.1,18.9,30.36,SW,217,1.0,9.0,87,0.00,,OVC OVC///CB,0.00,WUHU216DAVISVP2,2013-01-05 10:36:00,
2013-01-05 05:41:00,22.1,18.9,30.36,WSW,244,3.0,8.0,87,0.00,,OVC OVC///CB,0.00,WUHU216DAVISVP2,2013-01-05 10:41:00,
2013-01-05 05:46:00,22.1,18.9,30.36,SW,236,2.0,9.0,87,0.00,,OVC OVC///CB,0.00,WUHU216DAVISVP2,2013-01-05 10:46:00,
2013-01-05 05:51:00,22.0,18.8,30.36,SW,226,4.0,9.0,87,0.00,,OVC OVC///CB,0.00,WUHU216DAVISVP2,2013-01-05 10:51:00,
2013-01-05 05:56:00,22.0,18.8,30.35,SW,226,3.0,8.0,87,0.00,,OVC OVC///CB,0.00,WUHU216DAVISVP2,2013-01-05 10:56:00,
2013-01-05 06:01:00,22.0,18.8,30.35,WSW,238,2.0,8.0,87,0.00,,OVC OVC///CB,0.00,WUHU216DAVISVP2,2013-01-05 11:01:00,
2013-01-05 06:06:00,21.9,18.7,30.35,SW,236,2.0,8.0,87,0.00,,OVC OVC///CB,0.00,WUHU216DAVISVP2,2013-01-05 11:06:00,
2013-01-05 06:11:00,21.9,18.7,30.36,WSW,250,0.0,8.0,87,0.00,,OVC OVC///CB,0.00,WUHU216DAVISVP2,2013-01-05 11:11:00,
2013-01-05 06:16:00,21.8,18.9,30.36,SSW,197,1.0,5.0,88,0.00,,OVC OVC///CB,0.00,WUHU216DAVISVP2,2013-01-05 11:16:00,
2013-01-05 06:21:00,21.8,18.9,30.36,SW,226,0.0,5.0,88,0.00,,OVC OVC///CB,0.00,WUHU216DAVISVP2,2013-01-05 11:21:00,
2013-01-05 06:26:00,21.8,18.9,30.37,SW,221,2.0,4.0,88,0.00,,OVC OVC///CB,0.00,WUHU216DAVISVP2,2013-01-05 11:26:00,
2013-01-05 06:31:00,21.9,19.0,30.37,SW,228,2.0,7.0,88,0.00,,OVC OVC///CB,0.00,WUHU216DAVISVP2,2013-01-05 11:31:00,
2013-01-05 06:36:00,21.9,19.0,30.37,SW,236,5.0,7.0,88,0.00,,OVC OVC///CB,0.00,WUHU216DAVISVP2,2013-01-05 11:36:00,
2013-01-05 06:41:00,21.9,19.0,30.36,SSW,207,0.0,7.0,88,0.00,,OVC OVC///CB,0.00,WUHU216DAVISVP2,2013-01-05 11:41:00,
2013-01-05 06:46:00,21.9,19.0,30.37,SW,221,1.0,7.0,88,0.00,,OVC OVC///CB,0.00,WUHU216DAVISVP2,2013-01-05 11:46:00,
2013-01-05 06:51:00,21.9,19.0,30.36,South,177,2.0,6.0,88,0.00,,OVC OVC///CB,0.00,WUHU216DAVISVP2,2013-01-05 11:51:00,
2013-01-05 06:56:00,21.9,19.0,30.37,South,190,1.0,5.0,88,0.00,,OVC OVC///CB,0.00,WUHU216DAVISVP2,2013-01-05 11:56:00,
2013-01-05 07:01:00,21.7,18.8,30.38,SSW,203,2.0,5.0,88,0.00,,OVC OVC///CB,0.00,WUHU216DAVISVP2,2013-01-05 12:01:00,
2013-01-05 07:06:00,21.7,18.8,30.38,SW,222,2.0,5.0,88,0.00,,OVC OVC///CB,0.00,WUHU216DAVISVP2,2013-01-05 12:06:00,
2013-01-05 07:11:00,21.7,19.0,30.38,SSW,203,2.0,5.0,89,0.00,,OVC OVC///CB,0.00,WUHU216DAVISVP2,2013-01-05 12:11:00,
2013-01-05 07:16:00,21.7,19.0,30.38,SSW,208,1.0,6.0,89,0.00,,OVC OVC///CB,0.00,WUHU216DAVISVP2,2013-01-05 12:16:00,
2013-01-05 07:21:00,21.7,19.0,30.38,SSW,195,2.0,6.0,89,0.00,,OVC OVC///CB,0.00,WUHU216DAVISVP2,2013-01-05 12:21:00,
2013-01-05 07:26:00,21.7,19.0,30.38,SSW,204,2.0,6.0,89,0.00,,OVC OVC///CB,0.00,WUHU216DAVISVP2,2013-01-05 12:26:00,
2013-01-05 07:31:00,21.6,18.9,30.38,South,191,3.0,6.0,89,0.00,,OVC OVC///CB,0.00,WUHU216DAVISVP2,2013-01-05 12:31:00,
2013-01-05 07:36:00,21.6,18.9,30.38,SSW,198,3.0,5.0,89,0.00,,OVC OVC///CB,0.00,WUHU216DAVISVP2,2013-01-05 12:36:00,
2013-01-05 07:41:00,21.6,18.9,30.38,SSW,197,3.0,6.0,89,0.00,,OVC OVC///CB,0.00,WUHU216DAVISVP2,2013-01-05 12:41:00,
2013-01-05 07:46:00,21.6,18.9,30.39,SW,218,2.0,6.0,89,0.00,,OVC OVC///CB,0.00,WUHU216DAVISVP2,2013-01-05 12:46:00,
2013-01-05 07:51:00,21.6,19.2,30.40,SW,228,2.0,7.0,90,0.00,,OVC OVC///CB,0.00,WUHU216DAVISVP2,2013-01-05 12:51:00,
2013-01-05 07:56:00,21.6,19.2,30.40,WSW,242,6.0,8.0,90,0.00,,OVC OVC///CB,0.00,WUHU216DAVISVP2,2013-01-05 12:56:00,
2013-01-05 08:01:00,21.6,19.2,30.40,WSW,245,3.0,10.0,90,0.00,,OVC OVC///CB,0.00,WUHU216DAVISVP2,2013-01-05 13:01:00,
2013-01-05 08:06:00,21.5,19.1,30.40,SW,223,4.0,10.0,90,0.00,,OVC OVC///CB,0.00,WUHU216DAVISVP2,2013-01-05 13:06:00,
2013-01-05 08:11:00,21.5,19.1,30.40,WSW,244,4.0,11.0,90,0.00,,OVC OVC///CB,0.00,WUHU216DAVISVP2,2013-01-05 13:11:00,
2013-01-05 08:16:00,21.4,19.0,30.41,SW,231,6.0,11.0,90,0.00,,OVC OVC///CB,0.00,WUHU216DAVISVP2,2013-01-05 13:16:00,
2013-01-05 08:21:00,21.4,19.0,30.41,SW,218,3.0,11.0,90,0.00,,OVC OVC///CB,0.00,WUHU216DAVISVP2,2013-01-05 13:21:00,
2013-01-05 08:26:00,21.5,19.1,30.41,WSW,239,2.0,10.0,90,0.00,,OVC OVC///CB,0.00,WUHU216DAVISVP2,2013-01-05 13:26:00,
2013-01-05 08:31:00,21.5,19.1,30.41,SW,226,3.0,8.0,90,0.00,,OVC OVC///CB,0.00,WUHU216DAVISVP2,2013-01-05 13:31:00,
2013-01-05 08:36:00,21.6,19.4,30.41,SSW,211,5.0,9.0,91,0.00,,OVC OVC///CB,0.00,WUHU216DAVISVP2,2013-01-05 13:36:00,
2013-01-05 08:41:00,21.7,19.5,30.41,SW,233,2.0,9.0,91,0.00,,OVC OVC///CB,0.00,WUHU216DAVISVP2,2013-01-05 13:41:00,
2013-01-05 08:46:00,21.9,19.7,30.41,WSW,252,1.0,8.0,91,0.00,,OVC OVC///CB,0.00,WUHU216DAVISVP2,2013-01-05 13:46:00,
2013-01-05 08:51:00,22.1,19.9,30.40,SW,236,2.0,8.0,91,0.00,,OVC OVC///CB,0.00,WUHU216DAVISVP2,2013-01-05 13:51:00,
2013-01-05 08:56:00,22.2,20.0,30.41,SW,231,1.0,7.0,91,0.00,,OVC OVC///CB,0.00,WUHU216DAVISVP2,2013-01-05 13:56:00,
2013-01-05 09:01:00,22.4,20.2,30.41,SW,219,3.0,6.0,91,0.00,,OVC OVC///CB,0.00,WUHU216DAVISVP2,2013-01-05 14:01:00,
2013-01-05 09:06:00,22.5,20.1,30.41,SW,233,4.0,6.0,90,0.00,,OVC OVC///CB,0.00,WUHU216DAVISVP2,2013-01-05 14:06:00,
2013-01-05 09:11:00,22.7,20.3,30.40,SSW,200,2.0,5.0,90,0.00,,OVC OVC///CB,0.00,WUHU216DAVISVP2,2013-01-05 14:11:00,
2013-01-05 09:16:00,22.8,20.4,30.40,SSW,193,3.0,5.0,90,0.00,,OVC OVC///CB,0.00,WUHU216DAVISVP2,2013-01-05 14:16:00,
2013-01-05 09:21:00,23.0,20.6,30.39,South,188,4.0,5.0,90,0.00,,OVC OVC///CB,0.00,WUHU216DAVISVP2,2013-01-05 14:21:00,
2013-01-05 09:26:00,23.2,20.8,30.39,South,191,3.0,5.0,90,0.00,,OVC OVC///CB,0.00,WUHU216DAVISVP2,2013-01-05 14:26:00,
2013-01-05 09:31:00,23.5,21.1,30.39,SSW,204,2.0,5.0,90,0.00,,OVC OVC///CB,0.00,WUHU216DAVISVP2,2013-01-05 14:31:00,
2013-01-05 09:36:00,23.7,21.0,30.39,SSW,212,2.0,5.0,89,0.00,,OVC OVC///CB,0.00,WUHU216DAVISVP2,2013-01-05 14:36:00,
2013-01-05 09:41:00,23.8,21.1,30.39,South,181,1.0,5.0,89,0.00,,OVC OVC///CB,0.00,WUHU216DAVISVP2,2013-01-05 14:41:00,
2013-01-05 09:46:00,23.8,20.8,30.39,SSW,194,4.0,6.0,88,0.00,,OVC OVC///CB,0.00,WUHU216DAVISVP2,2013-01-05 14:46:00,
2013-01-05 09:51:00,23.9,20.9,30.39,SW,217,2.0,6.0,88,0.00,,OVC OVC///CB,0.00,WUHU216DAVISVP2,2013-01-05 14:51:00,
2013-01-05 09:56:00,24.0,21.0,30.39,SSW,195,5.0,6.0,88,0.00,,OVC OVC///CB,0.00,WUHU216DAVISVP2,2013-01-05 14:56:00,
2013-01-05 10:01:00,24.3,21.3,30.39,SSW,197,2.0,6.0,88,0.00,,OVC OVC///CB,0.00,WUHU216DAVISVP2,2013-01-05 15:01:00,
2013-01-05 10:06:00,24.4,21.2,30.39,SSW,205,1.0,8.0,87,0.00,,OVC OVC///CB,0.00,WUHU216DAVISVP2,2013-01-05 15:06:00,
2013-01-05 10:11:00,24.5,21.3,30.40,SSW,194,2.0,8.0,87,0.00,,OVC OVC///CB,0.00,WUHU216DAVISVP2,2013-01-05 15:11:00,
2013-01-05 10:16:00,24.6,21.1,30.40,WSW,255,3.0,11.0,86,0.00,,OVC OVC///CB,0.00,WUHU216DAVISVP2,2013-01-05 15:16:00,
2013-01-05 10:21:00,24.8,21.5,30.40,South,177,3.0,11.0,87,0.00,,OVC OVC///CB,0.00,WUHU216DAVISVP2,2013-01-05 15:21:00,
2013-01-05 10:26:00,25.0,21.5,30.40,SSW,194,1.0,10.0,86,0.00,,OVC OVC///CB,0.00,WUHU216DAVISVP2,2013-01-05 15:26:00,
2013-01-05 10:31:00,25.3,21.8,30.39,SSW,198,7.0,10.0,86,0.00,,OVC OVC///CB,0.00,WUHU216DAVISVP2,2013-01-05 15:31:00,
2013-01-05 10:36:00,25.5,22.0,30.39,South,179,3.0,9.0,86,0.00,,OVC OVC///CB,0.00,WUHU216DAVISVP2,2013-01-05 15:36:00,
2013-01-05 10:41:00,25.7,21.9,30.39,WSW,246,4.0,9.0,85,0.00,,OVC OVC///CB,0.00,WUHU216DAVISVP2,2013-01-05 15:41:00,
2013-01-05 10:46:00,25.7,21.9,30.39,South,184,4.0,9.0,85,0.00,,OVC OVC///CB,0.00,WUHU216DAVISVP2,2013-01-05 15:46:00,
2013-01-05 10:51:00,26.0,22.2,30.39,SSE,155,5.0,9.0,85,0.00,,OVC OVC///CB,0.00,WUHU216DAVISVP2,2013-01-05 15:51:00,
2013-01-05 10:56:00,26.3,22.2,30.39,SW,231,2.0,8.0,84,0.00,,OVC OVC///CB,0.00,WUHU216DAVISVP2,2013-01-05 15:56:00,
2013-01-05 11:01:00,26.6,22.5,30.39,SSW,205,4.0,8.0,84,0.00,,OVC OVC///CB,0.00,WUHU216DAVISVP2,2013-01-05 16:01:00,
2013-01-05 11:06:00,26.6,22.5,30.39,South,176,3.0,8.0,84,0.00,,OVC OVC///CB,0.00,WUHU216DAVISVP2,2013-01-05 16:06:00,
2013-01-05 11:11:00,26.8,22.7,30.39,SSW,204,2.0,8.0,84,0.00,,OVC OVC///CB,0.00,WUHU216DAVISVP2,2013-01-05 16:11:00,
2013-01-05 11:16:00,26.9,22.8,30.39,SSW,199,2.0,7.0,84,0.00,,OVC OVC///CB,0.00,WUHU216DAVISVP2,2013-01-05 16:16:00,
2013-01-05 11:21:00,27.1,22.7,30.38,SSW,208,4.0,9.0,83,0.00,,OVC OVC///CB,0.00,WUHU216DAVISVP2,2013-01-05 16:21:00,
2013-01-05 11:26:00,27.5,23.1,30.38,SSW,195,4.0,9.0,83,0.00,,OVC OVC///CB,0.00,WUHU216DAVISVP2,2013-01-05 16:26:00,
2013-01-05 11:31:00,27.8,23.4,30.38,SW,220,3.0,9.0,83,0.00,,OVC OVC///CB,0.00,WUHU216DAVISVP2,2013-01-05 16:31:00,
2013-01-05 11:36:00,28.1,23.4,30.37,SSW,198,1.0,9.0,82,0.00,,OVC OVC///CB,0.00,WUHU216DAVISVP2,2013-01-05 16:36:00,
2013-01-05 11:41:00,28.3,23.3,30.37,SW,232,5.0,9.0,81,0.00,,OVC OVC///CB,0.00,WUHU216DAVISVP2,2013-01-05 16:41:00,
2013-01-05 11:46:00,28.5,23.5,30.37,SW,231,6.0,9.0,81,0.00,,OVC OVC///CB,0.00,WUHU216DAVISVP2,2013-01-05 16:46:00,
2013-01-05 11:51:00,28.5,23.5,30.37,South,191,4.0,8.0,81,0.00,,OVC OVC///CB,0.00,WUHU216DAVISVP2,2013-01-05 16:51:00,
2013-01-05 11:56:00,29.0,24.3,30.37,WSW,238,4.0,8.0,82,0.00,,OVC OVC///CB,0.00,WUHU216DAVISVP2,2013-01-05 16:56:00,
2013-01-05 12:01:00,28.9,23.9,30.36,SW,218,5.0,8.0,81,0.00,,OVC OVC///CB,0.00,WUHU216DAVISVP2,2013-01-05 17:01:00,
2013-01-05 12:06:00,29.1,24.1,30.36,SSW,205,2.0,8.0,81,0.00,,OVC OVC///CB,0.00,WUHU216DAVISVP2,2013-01-05 17:06:00,
2013-01-05 12:11:00,29.4,24.1,30.35,SSW,203,3.0,10.0,80,0.00,,OVC OVC///CB,0.00,WUHU216DAVISVP2,2013-01-05 17:11:00,
2013-01-05 12:16:00,29.7,24.7,30.35,SW,222,6.0,10.0,81,0.00,,OVC OVC///CB,0.00,WUHU216DAVISVP2,2013-01-05 17:16:00,
2013-01-05 12:21:00,30.0,24.7,30.34,SSE,160,2.0,9.0,80,0.00,,OVC OVC///CB,0.00,WUHU216DAVISVP2,2013-01-05 17:21:00,
2013-01-05 12:26:00,30.7,25.4,30.34,South,187,2.0,9.0,80,0.00,,OVC OVC///CB,0.00,WUHU216DAVISVP2,2013-01-05 17:26:00,
2013-01-05 12:31:00,31.0,25.1,30.33,SSW,208,2.0,9.0,78,0.00,,OVC OVC///CB,0.00,WUHU216DAVISVP2,2013-01-05 17:31:00,
2013-01-05 12:36:00,31.3,25.4,30.33,SSW,203,2.0,8.0,78,0.00,,OVC OVC///CB,0.00,WUHU216DAVISVP2,2013-01-05 17:36:00,
2013-01-05 12:41:00,31.7,25.5,30.33,South,185,8.0,8.0,77,0.00,,OVC OVC///CB,0.00,WUHU216DAVISVP2,2013-01-05 17:41:00,
2013-01-05 12:46:00,31.9,25.7,30.32,SSW,210,2.0,9.0,77,0.00,,OVC OVC///CB,0.00,WUHU216DAVISVP2,2013-01-05 17:46:00,
2013-01-05 12:51:00,31.8,25.6,30.32,South,184,3.0,9.0,77,0.00,,OVC OVC///CB,0.00,WUHU216DAVISVP2,2013-01-05 17:51:00,
2013-01-05 12:56:00,32.1,25.9,30.32,SW,215,4.0,10.0,77,0.00,,OVC OVC///CB,0.00,WUHU216DAVISVP2,2013-01-05 17:56:00,
2013-01-05 13:01:00,32.0,25.8,30.31,SW,224,6.0,10.0,77,0.00,,OVC OVC///CB,0.00,WUHU216DAVISVP2,2013-01-05 18:01:00,
2013-01-05 13:06:00,32.1,25.9,30.31,SW,236,2.0,10.0,77,0.00,,OVC OVC///CB,0.00,WUHU216DAVISVP2,2013-01-05 18:06:00,
2013-01-05 13:11:00,32.6,26.3,30.30,SSW,200,2.0,10.0,77,0.00,,OVC OVC///CB,0.00,WUHU216DAVISVP2,2013-01-05 18:11:00,
2013-01-05 13:16:00,33.0,26.1,30.30,SW,215,4.0,9.0,75,0.00,,OVC OVC///CB,0.00,WUHU216DAVISVP2,2013-01-05 18:16:00,
2013-01-05 13:21:00,33.2,26.3,30.30,South,172,7.0,9.0,75,0.00,,OVC OVC///CB,0.00,WUHU216DAVISVP2,2013-01-05 18:21:00,
2013-01-05 13:26:00,32.9,26.0,30.30,WSW,241,9.0,11.0,75,0.00,,OVC OVC///CB,0.00,WUHU216DAVISVP2,2013-01-05 18:26:00,
2013-01-05 13:31:00,32.9,26.0,30.30,SW,215,4.0,11.0,75,0.00,,OVC OVC///CB,0.00,WUHU216DAVISVP2,2013-01-05 18:31:00,
2013-01-05 13:36:00,33.4,26.2,30.29,SW,215,3.0,11.0,74,0.00,,OVC OVC///CB,0.00,WUHU216DAVISVP2,2013-01-05 18:36:00,
2013-01-05 13:41:00,33.5,26.3,30.29,SSW,206,3.0,10.0,74,0.00,,OVC OVC///CB,0.00,WUHU216DAVISVP2,2013-01-05 18:41:00,
2013-01-05 13:46:00,33.5,26.3,30.29,South,172,3.0,7.0,74,0.00,,OVC OVC///CB,0.00,WUHU216DAVISVP2,2013-01-05 18:46:00,
2013-01-05 13:51:00,33.4,26.5,30.29,WSW,240,1.0,9.0,75,0.00,,OVC OVC///CB,0.00,WUHU216DAVISVP2,2013-01-05 18:51:00,
2013-01-05 13:56:00,33.4,26.5,30.29,South,176,3.0,9.0,75,0.00,,OVC OVC///CB,0.00,WUHU216DAVISVP2,2013-01-05 18:56:00,
2013-01-05 14:01:00,33.2,26.0,30.29,SW,226,7.0,9.0,74,0.00,,OVC OVC///CB,0.00,WUHU216DAVISVP2,2013-01-05 19:01:00,
2013-01-05 14:06:00,33.4,26.2,30.29,SSW,204,3.0,9.0,74,0.00,,OVC OVC///CB,0.00,WUHU216DAVISVP2,2013-01-05 19:06:00,
2013-01-05 14:11:00,33.9,26.7,30.27,SSW,204,4.0,9.0,74,0.00,,OVC OVC///CB,0.00,WUHU216DAVISVP2,2013-01-05 19:11:00,
2013-01-05 14:16:00,34.3,26.7,30.28,SW,226,4.0,9.0,73,0.00,,OVC OVC///CB,0.00,WUHU216DAVISVP2,2013-01-05 19:16:00,
2013-01-05 14:22:00,34.4,26.5,30.27,South,187,3.0,8.0,72,0.00,,OVC OVC///CB,0.00,WUHU216DAVISVP2,2013-01-05 19:22:00,
2013-01-05 14:26:00,34.2,26.6,30.26,SW,219,4.0,9.0,73,0.00,,OVC OVC///CB,0.00,WUHU216DAVISVP2,2013-01-05 19:26:00,
2013-01-05 14:31:00,34.4,26.8,30.26,South,173,7.0,10.0,73,0.00,,OVC OVC///CB,0.00,WUHU216DAVISVP2,2013-01-05 19:31:00,
2013-01-05 14:36:00,34.6,27.0,30.26,SW,218,2.0,10.0,73,0.00,,OVC OVC///CB,0.00,WUHU216DAVISVP2,2013-01-05 19:36:00,
2013-01-05 14:41:00,34.6,26.7,30.26,South,184,5.0,10.0,72,0.00,,OVC OVC///CB,0.00,WUHU216DAVISVP2,2013-01-05 19:41:00,
2013-01-05 14:46:00,34.3,26.4,30.26,SSW,195,6.0,10.0,72,0.00,,OVC OVC///CB,0.00,WUHU216DAVISVP2,2013-01-05 19:46:00,
2013-01-05 14:51:00,34.1,26.5,30.26,SSW,200,4.0,9.0,73,0.00,,OVC OVC///CB,0.00,WUHU216DAVISVP2,2013-01-05 19:51:00,
2013-01-05 14:56:00,34.1,26.5,30.26,SSW,205,7.0,10.0,73,0.00,,OVC OVC///CB,0.00,WUHU216DAVISVP2,2013-01-05 19:56:00,
2013-01-05 15:01:00,34.1,26.2,30.26,SW,222,11.0,11.0,72,0.00,,OVC OVC///CB,0.00,WUHU216DAVISVP2,2013-01-05 20:01:00,
2013-01-05 15:06:00,34.0,26.4,30.27,West,260,3.0,13.0,73,0.00,,OVC OVC///CB,0.00,WUHU216DAVISVP2,2013-01-05 20:06:00,
2013-01-05 15:11:00,34.0,26.4,30.27,SW,219,10.0,13.0,73,0.00,,OVC OVC///CB,0.00,WUHU216DAVISVP2,2013-01-05 20:11:00,
2013-01-05 15:16:00,33.9,26.3,30.26,SW,215,6.0,13.0,73,0.00,,OVC OVC///CB,0.00,WUHU216DAVISVP2,2013-01-05 20:16:00,
2013-01-05 15:22:00,34.2,26.6,30.26,SW,232,4.0,10.0,73,0.00,,OVC OVC///CB,0.00,WUHU216DAVISVP2,2013-01-05 20:22:00,
2013-01-05 15:27:00,34.7,27.1,30.25,WSW,242,4.0,10.0,73,0.00,,OVC OVC///CB,0.00,WUHU216DAVISVP2,2013-01-05 20:27:00,
2013-01-05 15:32:00,35.4,27.1,30.25,South,191,4.0,10.0,71,0.00,,OVC OVC///CB,0.00,WUHU216DAVISVP2,2013-01-05 20:32:00,
2013-01-05 15:36:00,35.7,27.1,30.26,SW,219,6.0,9.0,70,0.00,,OVC OVC///CB,0.00,WUHU216DAVISVP2,2013-01-05 20:36:00,
2013-01-05 15:42:00,35.1,26.5,30.26,SW,228,2.0,12.0,70,0.00,,OVC OVC///CB,0.00,WUHU216DAVISVP2,2013-01-05 20:42:00,
2013-01-05 15:47:00,34.9,26.6,30.26,SW,215,6.0,12.0,71,0.00,,OVC OVC///CB,0.00,WUHU216DAVISVP2,2013-01-05 20:47:00,
2013-01-05 15:52:00,35.1,26.5,30.26,SW,215,4.0,11.0,70,0.00,,OVC OVC///CB,0.00,WUHU216DAVISVP2,2013-01-05 20:52:00,
2013-01-05 15:57:00,35.1,26.5,30.25,SW,229,4.0,11.0,70,0.00,,OVC OVC///CB,0.00,WUHU216DAVISVP2,2013-01-05 20:57:00,
2013-01-05 16:02:00,34.7,26.5,30.25,South,174,4.0,9.0,71,0.00,,OVC OVC///CB,0.00,WUHU216DAVISVP2,2013-01-05 21:02:00,
2013-01-05 16:07:00,34.4,26.5,30.25,SSW,203,4.0,9.0,72,0.00,,OVC OVC///CB,0.00,WUHU216DAVISVP2,2013-01-05 21:07:00,
2013-01-05 16:12:00,34.1,26.2,30.25,SW,228,7.0,8.0,72,0.00,,OVC OVC///CB,0.00,WUHU216DAVISVP2,2013-01-05 21:12:00,
2013-01-05 16:17:00,33.9,26.3,30.25,South,186,2.0,8.0,73,0.00,,OVC OVC///CB,0.00,WUHU216DAVISVP2,2013-01-05 21:17:00,
2013-01-05 16:22:00,33.7,26.1,30.26,SW,228,3.0,8.0,73,0.00,,OVC OVC///CB,0.00,WUHU216DAVISVP2,2013-01-05 21:22:00,
2013-01-05 16:27:00,33.6,26.4,30.25,SW,232,2.0,7.0,74,0.00,,OVC OVC///CB,0.00,WUHU216DAVISVP2,2013-01-05 21:27:00,
2013-01-05 16:32:00,33.4,26.2,30.25,SW,235,2.0,7.0,74,0.00,,OVC OVC///CB,0.00,WUHU216DAVISVP2,2013-01-05 21:32:00,
2013-01-05 16:37:00,33.3,26.1,30.25,SSW,199,3.0,7.0,74,0.00,,OVC OVC///CB,0.00,WUHU216DAVISVP2,2013-01-05 21:37:00,
2013-01-05 16:42:00,33.2,26.3,30.25,SSW,198,3.0,7.0,75,0.00,,OVC OVC///CB,0.00,WUHU216DAVISVP2,2013-01-05 21:42:00,
2013-01-05 16:47:00,33.1,26.2,30.25,SSW,195,2.0,4.0,75,0.00,,OVC OVC///CB,0.00,WUHU216DAVISVP2,2013-01-05 21:47:00,
2013-01-05 16:52:00,33.1,26.2,30.24,SSW,194,1.0,4.0,75,0.00,,OVC OVC///CB,0.00,WUHU216DAVISVP2,2013-01-05 21:52:00,
2013-01-05 16:57:00,33.1,26.2,30.24,South,176,1.0,4.0,75,0.00,,OVC OVC///CB,0.00,WUHU216DAVISVP2,2013-01-05 21:57:00,
2013-01-05 17:01:00,33.1,26.2,30.24,SSE,165,0.0,4.0,75,0.00,,OVC OVC///CB,0.00,WUHU216DAVISVP2,2013-01-05 22:01:00,
2013-01-05 17:06:00,33.1,26.5,30.23,SSE,165,0.0,3.0,76,0.00,,OVC OVC///CB,0.00,WUHU216DAVISVP2,2013-01-05 22:06:00,
2013-01-05 17:11:00,32.9,26.3,30.23,SSE,165,0.0,3.0,76,0.00,,OVC OVC///CB,0.00,WUHU216DAVISVP2,2013-01-05 22:11:00,
2013-01-05 17:16:00,32.8,26.5,30.24,SSE,163,0.0,3.0,77,0.00,,OVC OVC///CB,0.00,WUHU216DAVISVP2,2013-01-05 22:16:00,
2013-01-05 17:22:00,32.7,26.4,30.24,SSE,158,0.0,2.0,77,0.00,,OVC OVC///CB,0.00,WUHU216DAVISVP2,2013-01-05 22:22:00,
2013-01-05 17:27:00,32.7,26.4,30.24,SW,215,3.0,4.0,77,0.00,,OVC OVC///CB,0.00,WUHU216DAVISVP2,2013-01-05 22:27:00,
2013-01-05 17:31:00,32.8,26.5,30.24,South,188,1.0,4.0,77,0.00,,OVC OVC///CB,0.00,WUHU216DAVISVP2,2013-01-05 22:31:00,
2013-01-05 17:36:00,32.8,26.5,30.24,SE,141,1.0,4.0,77,0.00,,OVC OVC///CB,0.00,WUHU216DAVISVP2,2013-01-05 22:36:00,
2013-01-05 17:42:00,32.8,26.5,30.24,SSW,212,1.0,4.0,77,0.00,,OVC OVC///CB,0.00,WUHU216DAVISVP2,2013-01-05 22:42:00,
2013-01-05 17:47:00,32.8,26.5,30.24,SSW,193,0.0,2.0,77,0.00,,OVC OVC///CB,0.00,WUHU216DAVISVP2,2013-01-05 22:47:00,
2013-01-05 17:52:00,32.8,26.5,30.24,SE,146,0.0,2.0,77,0.00,,OVC OVC///CB,0.00,WUHU216DAVISVP2,2013-01-05 22:52:00,
2013-01-05 17:57:00,32.9,26.9,30.23,SSW,207,0.0,2.0,78,0.00,,OVC OVC///CB,0.00,WUHU216DAVISVP2,2013-01-05 22:57:00,
2013-01-05 18:02:00,32.9,26.6,30.23,SSW,195,1.0,3.0,77,0.00,,OVC OVC///CB,0.00,WUHU216DAVISVP2,2013-01-05 23:02:00,
2013-01-05 18:07:00,33.0,26.7,30.23,South,190,2.0,4.0,77,0.00,,OVC OVC///CB,0.00,WUHU216DAVISVP2,2013-01-05 23:07:00,
2013-01-05 18:12:00,33.1,26.8,30.23,SSW,208,2.0,4.0,77,0.00,,OVC OVC///CB,0.00,WUHU216DAVISVP2,2013-01-05 23:12:00,
2013-01-05 18:17:00,33.2,26.9,30.23,SSW,195,1.0,4.0,77,0.00,,OVC OVC///CB,0.00,WUHU216DAVISVP2,2013-01-05 23:17:00,
2013-01-05 18:22:00,33.3,27.0,30.23,SSW,194,0.0,4.0,77,0.00,,OVC OVC///CB,0.00,WUHU216DAVISVP2,2013-01-05 23:22:00,
2013-01-05 18:27:00,33.3,27.0,30.23,South,190,2.0,4.0,77,0.00,,OVC OVC///CB,0.00,WUHU216DAVISVP2,2013-01-05 23:27:00,
2013-01-05 18:32:00,33.3,27.0,30.24,SW,231,2.0,4.0,77,0.00,,OVC OVC///CB,0.00,WUHU216DAVISVP2,2013-01-05 23:32:00,
2013-01-05 18:37:00,33.3,27.0,30.24,SSW,201,1.0,3.0,77,0.00,,OVC OVC///CB,0.00,WUHU216DAVISVP2,2013-01-05 23:37:00,
2013-01-05 18:42:00,33.3,27.0,30.23,SSW,198,1.0,3.0,77,0.00,,OVC OVC///CB,0.00,WUHU216DAVISVP2,2013-01-05 23:42:00,
2013-01-05 18:47:00,33.3,27.0,30.23,SSE,147,0.0,3.0,77,0.00,,OVC OVC///CB,0.00,WUHU216DAVISVP2,2013-01-05 23:47:00,
2013-01-05 18:52:00,33.2,26.9,30.22,SSE,165,2.0,3.0,77,0.00,,OVC OVC///CB,0.00,WUHU216DAVISVP2,2013-01-05 23:52:00,
2013-01-05 18:57:00,33.2,27.2,30.23,SSW,208,2.0,3.0,78,0.00,,OVC OVC///CB,0.00,WUHU216DAVISVP2,2013-01-05 23:57:00,
2013-01-05 19:02:00,33.2,26.9,30.24,SW,226,1.0,3.0,77,0.00,,OVC OVC///CB,0.00,WUHU216DAVISVP2,2013-01-06 00:02:00,
2013-01-05 19:07:00,33.2,26.9,30.24,SW,215,1.0,3.0,77,0.00,,OVC OVC///CB,0.00,WUHU216DAVISVP2,2013-01-06 00:07:00,
2013-01-05 19:12:00,33.3,27.0,30.23,SW,224,2.0,3.0,77,0.00,,OVC OVC///CB,0.00,WUHU216DAVISVP2,2013-01-06 00:12:00,
2013-01-05 19:17:00,33.3,27.0,30.23,SSW,212,1.0,4.0,77,0.00,,OVC OVC///CB,0.00,WUHU216DAVISVP2,2013-01-06 00:17:00,
2013-01-05 19:22:00,33.3,27.0,30.24,SW,226,1.0,4.0,77,0.00,,OVC OVC///CB,0.00,WUHU216DAVISVP2,2013-01-06 00:22:00,
2013-01-05 19:27:00,33.2,26.9,30.23,SSW,212,2.0,4.0,77,0.00,,OVC OVC///CB,0.00,WUHU216DAVISVP2,2013-01-06 00:27:00,
2013-01-05 19:32:00,33.2,26.9,30.24,SSW,208,1.0,4.0,77,0.00,,OVC OVC///CB,0.00,WUHU216DAVISVP2,2013-01-06 00:32:00,
2013-01-05 19:37:00,33.1,27.1,30.23,SSW,211,0.0,4.0,78,0.00,,OVC OVC///CB,0.00,WUHU216DAVISVP2,2013-01-06 00:37:00,
2013-01-05 19:42:00,33.0,27.0,30.23,SW,232,0.0,3.0,78,0.00,,OVC OVC///CB,0.00,WUHU216DAVISVP2,2013-01-06 00:42:00,
2013-01-05 19:47:00,33.0,27.3,30.24,SW,235,1.0,3.0,79,0.00,,OVC OVC///CB,0.00,WUHU216DAVISVP2,2013-01-06 00:47:00,
2013-01-05 19:52:00,33.0,27.0,30.23,SW,219,1.0,5.0,78,0.00,,OVC OVC///CB,0.00,WUHU216DAVISVP2,2013-01-06 00:52:00,
2013-01-05 19:57:00,33.0,27.0,30.23,SW,222,1.0,5.0,78,0.00,,OVC OVC///CB,0.00,WUHU216DAVISVP2,2013-01-06 00:57:00,
2013-01-05 20:02:00,33.0,27.0,30.23,South,183,2.0,4.0,78,0.00,,OVC OVC///CB,0.00,WUHU216DAVISVP2,2013-01-06 01:02:00,
2013-01-05 20:07:00,33.0,27.3,30.23,SSE,160,1.0,4.0,79,0.00,,OVC OVC///CB,0.00,WUHU216DAVISVP2,2013-01-06 01:07:00,
2013-01-05 20:12:00,32.9,27.2,30.22,South,191,1.0,4.0,79,0.00,,OVC OVC///CB,0.00,WUHU216DAVISVP2,2013-01-06 01:12:00,
2013-01-05 20:17:00,32.8,27.1,30.22,SSE,166,2.0,4.0,79,0.00,,OVC OVC///CB,0.00,WUHU216DAVISVP2,2013-01-06 01:17:00,
2013-01-05 20:22:00,32.8,27.4,30.21,SSE,162,1.0,3.0,80,0.00,,OVC OVC///CB,0.00,WUHU216DAVISVP2,2013-01-06 01:22:00,
2013-01-05 20:27:00,32.9,27.5,30.20,South,169,2.0,3.0,80,0.00,,OVC OVC///CB,0.00,WUHU216DAVISVP2,2013-01-06 01:27:00,
2013-01-05 20:32:00,33.0,27.6,30.20,SSE,152,2.0,3.0,80,0.00,,OVC OVC///CB,0.00,WUHU216DAVISVP2,2013-01-06 01:32:00,
2013-01-05 20:37:00,33.1,27.4,30.20,South,186,2.0,4.0,79,0.00,,OVC OVC///CB,0.00,WUHU216DAVISVP2,2013-01-06 01:37:00,
2013-01-05 20:42:00,33.1,27.4,30.20,SW,214,3.0,5.0,79,0.00,,OVC OVC///CB,0.00,WUHU216DAVISVP2,2013-01-06 01:42:00,
2013-01-05 20:47:00,33.2,27.5,30.19,SSW,212,0.0,6.0,79,0.00,,OVC OVC///CB,0.00,WUHU216DAVISVP2,2013-01-06 01:47:00,
2013-01-05 20:52:00,33.2,27.5,30.20,SSW,200,4.0,6.0,79,0.00,,OVC OVC///CB,0.00,WUHU216DAVISVP2,2013-01-06 01:52:00,
2013-01-05 20:57:00,33.2,27.5,30.20,SSW,210,1.0,6.0,79,0.00,,OVC OVC///CB,0.00,WUHU216DAVISVP2,2013-01-06 01:57:00,
2013-01-05 21:02:00,33.1,27.4,30.20,SSW,207,2.0,6.0,79,0.00,,OVC OVC///CB,0.00,WUHU216DAVISVP2,2013-01-06 02:02:00,
2013-01-05 21:07:00,33.2,27.5,30.19,South,186,1.0,5.0,79,0.00,,OVC OVC///CB,0.00,WUHU216DAVISVP2,2013-01-06 02:07:00,
2013-01-05 21:12:00,33.1,27.4,30.19,SSW,201,2.0,5.0,79,0.00,,OVC OVC///CB,0.00,WUHU216DAVISVP2,2013-01-06 02:12:00,
2013-01-05 21:17:00,33.1,27.4,30.19,SW,232,1.0,5.0,79,0.00,,OVC OVC///CB,0.00,WUHU216DAVISVP2,2013-01-06 02:17:00,
2013-01-05 21:22:00,33.0,27.3,30.19,SSW,212,1.0,5.0,79,0.00,,OVC OVC///CB,0.00,WUHU216DAVISVP2,2013-01-06 02:22:00,
2013-01-05 21:27:00,33.0,27.3,30.19,WSW,245,4.0,8.0,79,0.00,,OVC OVC///CB,0.00,WUHU216DAVISVP2,2013-01-06 02:27:00,
2013-01-05 21:32:00,33.1,27.4,30.20,SW,228,2.0,8.0,79,0.00,,OVC OVC///CB,0.00,WUHU216DAVISVP2,2013-01-06 02:32:00,
2013-01-05 21:37:00,33.1,27.4,30.20,SW,228,3.0,7.0,79,0.00,,OVC OVC///CB,0.00,WUHU216DAVISVP2,2013-01-06 02:37:00,
2013-01-05 21:42:00,33.1,27.4,30.20,WSW,240,1.0,7.0,79,0.00,,OVC OVC///CB,0.00,WUHU216DAVISVP2,2013-01-06 02:42:00,
2013-01-05 21:47:00,33.0,27.3,30.19,SW,218,2.0,7.0,79,0.00,,OVC OVC///CB,0.00,WUHU216DAVISVP2,2013-01-06 02:47:00,
2013-01-05 21:52:00,33.0,27.6,30.19,SW,224,2.0,5.0,80,0.00,,OVC OVC///CB,0.00,WUHU216DAVISVP2,2013-01-06 02:52:00,
2013-01-05 21:57:00,33.0,27.6,30.19,WSW,238,1.0,4.0,80,0.00,,OVC OVC///CB,0.00,WUHU216DAVISVP2,2013-01-06 02:57:00,
2013-01-05 22:02:00,32.9,27.5,30.19,SW,224,3.0,4.0,80,0.00,,OVC OVC///CB,0.00,WUHU216DAVISVP2,2013-01-06 03:02:00,
2013-01-05 22:07:00,33.0,27.6,30.19,WSW,242,4.0,5.0,80,0.00,,OVC OVC///CB,0.00,WUHU216DAVISVP2,2013-01-06 03:07:00,
2013-01-05 22:12:00,32.9,27.5,30.19,SW,214,1.0,6.0,80,0.00,,OVC OVC///CB,0.00,WUHU216DAVISVP2,2013-01-06 03:12:00,
2013-01-05 22:17:00,33.0,27.6,30.19,SW,224,2.0,6.0,80,0.00,,OVC OVC///CB,0.00,WUHU216DAVISVP2,2013-01-06 03:17:00,
2013-01-05 22:22:00,33.0,27.6,30.18,SSW,210,2.0,6.0,80,0.00,,OVC OVC///CB,0.00,WUHU216DAVISVP2,2013-01-06 03:22:00,
2013-01-05 22:27:00,33.0,27.6,30.19,WSW,250,1.0,6.0,80,0.00,,OVC OVC///CB,0.00,WUHU216DAVISVP2,2013-01-06 03:27:00,
2013-01-05 22:32:00,33.1,27.7,30.19,West,262,0.0,5.0,80,0.00,,OVC OVC///CB,0.00,WUHU216DAVISVP2,2013-01-06 03:32:00,
2013-01-05 22:37:00,33.1,27.7,30.19,WSW,240,1.0,5.0,80,0.00,,OVC OVC///CB,0.00,WUHU216DAVISVP2,2013-01-06 03:37:00,
2013-01-05 22:42:00,33.0,27.6,30.19,WSW,250,0.0,4.0,80,0.00,,OVC OVC///CB,0.00,WUHU216DAVISVP2,2013-01-06 03:42:00,
2013-01-05 22:47:00,32.9,27.5,30.19,SW,219,2.0,4.0,80,0.00,,OVC OVC///CB,0.00,WUHU216DAVISVP2,2013-01-06 03:47:00,
2013-01-05 22:52:00,32.9,27.5,30.18,SW,232,3.0,4.0,80,0.00,,OVC OVC///CB,0.00,WUHU216DAVISVP2,2013-01-06 03:52:00,
2013-01-05 22:57:00,33.0,27.6,30.18,SW,235,3.0,4.0,80,0.00,,OVC OVC///CB,0.00,WUHU216DAVISVP2,2013-01-06 03:57:00,
2013-01-05 23:02:00,33.1,27.7,30.18,SW,235,2.0,6.0,80,0.00,,OVC OVC///CB,0.00,WUHU216DAVISVP2,2013-01-06 04:02:00,
2013-01-05 23:07:00,33.1,27.7,30.18,WSW,248,3.0,6.0,80,0.00,,OVC OVC///CB,0.00,WUHU216DAVISVP2,2013-01-06 04:07:00,
2013-01-05 23:12:00,33.1,27.7,30.18,SW,232,4.0,6.0,80,0.00,,OVC OVC///CB,0.00,WUHU216DAVISVP2,2013-01-06 04:12:00,
2013-01-05 23:17:00,33.0,27.6,30.18,WSW,250,2.0,6.0,80,0.00,,OVC OVC///CB,0.00,WUHU216DAVISVP2,2013-01-06 04:17:00,
2013-01-05 23:22:00,33.1,27.7,30.18,SW,232,2.0,5.0,80,0.00,,OVC OVC///CB,0.00,WUHU216DAVISVP2,2013-01-06 04:22:00,
2013-01-05 23:27:00,33.1,28.0,30.18,WSW,248,1.0,5.0,81,0.00,,OVC OVC///CB,0.00,WUHU216DAVISVP2,2013-01-06 04:27:00,
2013-01-05 23:32:00,33.2,27.8,30.17,SSW,193,1.0,6.0,80,0.00,,OVC OVC///CB,0.00,WUHU216DAVISVP2,2013-01-06 04:32:00,
2013-01-05 23:37:00,33.3,27.6,30.17,WSW,238,5.0,7.0,79,0.00,,OVC OVC///CB,0.00,WUHU216DAVISVP2,2013-01-06 04:37:00,
2013-01-05 23:42:00,33.5,27.8,30.17,SSW,210,4.0,7.0,79,0.00,,OVC OVC///CB,0.00,WUHU216DAVISVP2,2013-01-06 04:42:00,
2013-01-05 23:47:00,33.6,27.9,30.17,SW,231,5.0,9.0,79,0.00,,OVC OVC///CB,0.00,WUHU216DAVISVP2,2013-01-06 04:47:00,
2013-01-05 23:52:00,33.6,27.9,30.17,SW,224,2.0,9.0,79,0.00,,OVC OVC///CB,0.00,WUHU216DAVISVP2,2013-01-06 04:52:00,
2013-01-05 23:57:00,33.7,28.0,30.17,SW,226,2.0,9.0,79,0.00,,OVC OVC///CB,0.00,WUHU216DAVISVP2,2013-01-06 04:57:00,